createdAt,value
2019-06-10T00:00:38.025Z,21.37
2019-06-10T00:01:38.055Z,21.35
2019-06-10T00:02:37.984Z,21.35
2019-06-10T00:03:37.993Z,21.36
2019-06-10T00:04:37.965Z,21.36
2019-06-10T00:05:37.959Z,21.30
2019-06-10T00:06:37.938Z,21.33
2019-06-10T00:07:37.934Z,21.36
2019-06-10T00:08:37.921Z,21.22
2019-06-10T00:09:37.910Z,21.33
2019-06-10T00:10:37.918Z,21.27
2019-06-10T00:11:37.966Z,21.21
2019-06-10T00:12:37.915Z,21.32
2019-06-10T00:13:37.870Z,21.24
2019-06-10T00:14:37.861Z,21.22
2019-06-10T00:15:37.852Z,21.20
2019-06-10T00:16:37.838Z,21.20
2019-06-10T00:17:50.654Z,21.18
2019-06-10T00:18:42.985Z,21.21
2019-06-10T00:19:40.884Z,21.27
2019-06-10T00:20:37.791Z,21.32
2019-06-10T00:21:37.832Z,21.24
2019-06-10T00:22:37.767Z,21.27
2019-06-10T00:23:37.755Z,21.21
2019-06-10T00:24:37.754Z,21.29
2019-06-10T00:25:37.738Z,21.22
2019-06-10T00:26:37.729Z,21.17
2019-06-10T00:27:37.716Z,21.11
2019-06-10T00:28:37.710Z,21.06
2019-06-10T00:29:37.694Z,21.00
2019-06-10T00:30:37.678Z,21.00
2019-06-10T00:31:37.752Z,21.00
2019-06-10T00:32:37.662Z,20.99
2019-06-10T00:33:37.660Z,21.03
2019-06-10T00:34:37.639Z,21.03
2019-06-10T00:35:37.634Z,20.96
2019-06-10T00:36:37.618Z,20.87
2019-06-10T00:37:46.238Z,20.90
2019-06-10T00:39:22.077Z,21.03
2019-06-10T00:40:21.519Z,20.99
2019-06-10T00:41:21.919Z,21.02
2019-06-10T00:42:21.411Z,20.96
2019-06-10T00:43:21.394Z,20.93
2019-06-10T00:44:20.554Z,20.92
2019-06-10T00:45:21.541Z,20.93
2019-06-10T00:46:21.198Z,20.87
2019-06-10T00:47:21.159Z,20.88
2019-06-10T00:48:26.289Z,20.81
2019-06-10T00:49:21.256Z,20.81
2019-06-10T00:50:21.724Z,20.78
2019-06-10T00:51:21.008Z,20.81
2019-06-10T00:52:21.341Z,20.81
2019-06-10T00:53:21.089Z,20.74
2019-06-10T00:54:21.791Z,20.88
2019-06-10T00:55:21.167Z,20.85
2019-06-10T00:56:21.603Z,20.87
2019-06-10T00:57:20.896Z,20.81
2019-06-10T00:58:21.672Z,20.74
2019-06-10T00:59:21.806Z,20.75
2019-06-10T01:00:25.617Z,20.74
2019-06-10T01:01:21.993Z,20.81
2019-06-10T01:02:21.385Z,20.80
2019-06-10T01:03:20.920Z,20.70
2019-06-10T01:04:21.653Z,20.81
2019-06-10T01:05:20.754Z,20.70
2019-06-10T01:06:21.399Z,20.81
2019-06-10T01:07:21.644Z,20.81
2019-06-10T01:08:21.502Z,20.82
2019-06-10T01:09:21.655Z,20.80
2019-06-10T01:10:21.069Z,20.85
2019-06-10T01:11:25.847Z,20.84
2019-06-10T01:12:21.119Z,20.84
2019-06-10T01:13:20.814Z,20.84
2019-06-10T01:14:21.474Z,20.75
2019-06-10T01:15:21.730Z,20.84
2019-06-10T01:16:21.471Z,20.80
2019-06-10T01:17:21.340Z,20.77
2019-06-10T01:18:34.582Z,20.69
2019-06-10T01:19:21.888Z,20.75
2019-06-10T01:20:21.088Z,20.78
2019-06-10T01:21:21.682Z,20.69
2019-06-10T01:22:21.279Z,20.58
2019-06-10T01:23:21.647Z,20.60
2019-06-10T01:24:19.279Z,20.58
2019-06-10T01:25:21.542Z,20.59
2019-06-10T01:26:21.594Z,20.52
2019-06-10T01:27:21.177Z,20.52
2019-06-10T01:28:21.822Z,20.47
2019-06-10T01:29:21.062Z,20.39
2019-06-10T01:30:24.566Z,20.47
2019-06-10T01:31:23.953Z,20.41
2019-06-10T01:32:21.521Z,20.37
2019-06-10T01:33:21.218Z,20.32
2019-06-10T01:34:21.550Z,20.32
2019-06-10T01:35:21.091Z,20.39
2019-06-10T01:36:21.031Z,20.37
2019-06-10T01:37:21.579Z,20.32
2019-06-10T01:38:27.763Z,20.39
2019-06-10T01:40:01.287Z,20.43
2019-06-10T01:41:11.106Z,20.39
2019-06-10T01:42:44.417Z,20.41
2019-06-10T01:43:53.634Z,20.39
2019-06-10T01:45:26.561Z,20.43
2019-06-10T01:46:26.531Z,20.48
2019-06-10T01:48:44.237Z,20.58
2019-06-10T01:49:44.637Z,20.51
2019-06-10T01:51:18.151Z,20.60
2019-06-10T01:52:18.481Z,20.48
2019-06-10T01:53:18.826Z,20.52
2019-06-10T01:54:18.486Z,20.51
2019-06-10T01:55:18.300Z,20.62
2019-06-10T01:56:18.635Z,20.59
2019-06-10T01:57:18.688Z,20.62
2019-06-10T01:58:20.768Z,20.51
2019-06-10T01:59:25.209Z,20.58
2019-06-10T02:01:01.454Z,20.58
2019-06-10T02:02:00.968Z,20.59
2019-06-10T02:03:41.572Z,20.63
2019-06-10T02:04:41.336Z,20.63
2019-06-10T02:06:25.744Z,20.65
2019-06-10T02:07:23.274Z,20.70
2019-06-10T02:09:04.613Z,20.75
2019-06-10T02:10:04.603Z,20.80
2019-06-10T02:11:04.593Z,20.81
2019-06-10T02:12:04.581Z,20.75
2019-06-10T02:13:04.579Z,20.82
2019-06-10T02:14:04.563Z,20.88
2019-06-10T02:15:04.545Z,20.82
2019-06-10T02:16:04.538Z,20.69
2019-06-10T02:17:04.530Z,20.77
2019-06-10T02:18:04.525Z,20.66
